Denise A. Bouchard — WDH3802 — position and weather

sailwx.info

Track history (hours):
 
Tides and Currents Weather Stations Pressure Air Temp Water Temp Dewpoint Dewpoint Depression Visibility Wind Speed Wind Dir Waves Ship Positions

Denise A. Bouchard

Owner: Tug Denise A, Bouchard Corp, Melville, NY. More information available from US FCC via Universal Licensing System and Coast Guard Vessel Documentation Center.

Last reported at 2018-Feb-19 13:26 UTC. Time now 2018-Feb-19 20:12 UTC.
Position N 41°37' W 071°18'.

Length 160 m; draft 5 m.

Type: Tug. MMSI: 367611060.

Date/timePositionNaut miles runAvg speedWind from/ knotsBaromVisibWave heightAir tempDewpointWater temp
2018-Feb-19 13:26N 41°37' W 071°18'4 8.8
2018-Feb-19 12:59N 41°41' W 071°19'5 8.8
2018-Feb-19 12:27N 41°45' W 071°22'2 5.0
2018-Feb-19 12:01N 41°47' W 071°22'0 0.0
2018-Feb-19 11:30N 41°47' W 071°22'0 0.0
2018-Feb-19 11:00N 41°47' W 071°22'0 0.1
2018-Feb-19 10:30N 41°47' W 071°22'0 0.0
2018-Feb-19 09:55N 41°47' W 071°22'0 0.0
2018-Feb-19 09:25N 41°47' W 071°22'0 0.0
2018-Feb-19 08:54N 41°47' W 071°22'0 0.0
2018-Feb-19 08:24N 41°47' W 071°22'0 0.0
2018-Feb-19 07:49N 41°47' W 071°22'0 0.0
2018-Feb-19 07:25N 41°47' W 071°22'0 0.0
2018-Feb-19 07:00N 41°47' W 071°22'0 0.0
2018-Feb-19 06:30N 41°47' W 071°22'0 0.0
2018-Feb-19 06:00N 41°47' W 071°22'0 0.0
2018-Feb-19 05:28N 41°47' W 071°22'0 0.0
2018-Feb-19 05:00N 41°47' W 071°22'0 0.0
2018-Feb-19 04:30N 41°47' W 071°22'0 0.0
2018-Feb-19 04:00N 41°47' W 071°22'0 0.0
2018-Feb-19 03:30N 41°47' W 071°22'0 0.0
2018-Feb-19 03:00N 41°47' W 071°22'0 0.0
2018-Feb-19 02:30N 41°47' W 071°22'0 0.0
2018-Feb-19 02:00N 41°47' W 071°22'1 2.6
2018-Feb-19 01:30N 41°46' W 071°23'3 6.3
2018-Feb-19 00:59N 41°43' W 071°20'3 7.2
2018-Feb-19 00:30N 41°40' W 071°19'43 4.5
2018-Feb-18 14:59N 42°10' W 070°38'510.0
2018-Feb-18 14:30N 42°15' W 070°40'5 9.8
2018-Feb-18 14:01N 42°18' W 070°44'5 9.6
2018-Feb-18 13:30N 42°22' W 070°49'4 8.7
2018-Feb-18 13:00N 42°22' W 070°55'4 8.2
2018-Feb-18 12:30N 42°20' W 070°60'4 8.1
2018-Feb-18 12:01N 42°23' W 071°03'0 0.3
2018-Feb-18 11:31N 42°23' W 071°03'0 0.0
2018-Feb-18 11:01N 42°23' W 071°03'0 0.0
2018-Feb-18 10:31N 42°23' W 071°03'0 0.0
2018-Feb-18 09:58N 42°23' W 071°03'0 0.0
2018-Feb-18 09:28N 42°23' W 071°03'0 0.0
2018-Feb-18 08:58N 42°23' W 071°03'0 0.0
2018-Feb-18 08:25N 42°23' W 071°03'0 0.0
2018-Feb-18 07:58N 42°23' W 071°03'0 0.0
2018-Feb-18 07:28N 42°23' W 071°03'0 0.0
2018-Feb-18 06:58N 42°23' W 071°03'0 0.0
2018-Feb-18 06:28N 42°23' W 071°03'0 0.0
2018-Feb-18 05:58N 42°23' W 071°03'0 0.0
2018-Feb-18 05:28N 42°23' W 071°03'0 0.0
2018-Feb-18 04:58N 42°23' W 071°03'0 0.0
2018-Feb-18 04:28N 42°23' W 071°03'0 0.0
2018-Feb-18 03:58N 42°23' W 071°03'0 0.0
2018-Feb-18 03:28N 42°23' W 071°03'0 0.0
2018-Feb-18 02:58N 42°23' W 071°03'0 0.0
2018-Feb-18 02:28N 42°23' W 071°03'0 0.0
2018-Feb-18 01:58N 42°23' W 071°03'0 0.0
2018-Feb-18 01:28N 42°23' W 071°03'0 0.0
2018-Feb-18 00:58N 42°23' W 071°03'0 0.0
2018-Feb-18 00:30N 42°23' W 071°03'0 0.0
2018-Feb-18 00:00N 42°23' W 071°03'0 0.3
2018-Feb-17 23:30N 42°23' W 071°03'3 5.2
2018-Feb-17 23:00N 42°21' W 071°01'1 2.5
2018-Feb-17 22:30N 42°20' W 071°00'3 6.0
2018-Feb-17 22:01N 42°21' W 070°56'3 6.1
2018-Feb-17 21:30N 42°23' W 070°53'6 6.7
2018-Feb-17 20:36N 42°20' W 070°46'2 7.8
2018-Feb-17 20:21N 42°19' W 070°43'90 6.9
2018-Feb-17 07:18N 41°14' W 072°08'311.0
2018-Feb-17 07:00N 41°14' W 072°12'611.3
2018-Feb-17 06:30N 41°12' W 072°19'510.9
2018-Feb-17 06:00N 41°10' W 072°26'5 9.6
2018-Feb-17 05:27N 41°08' W 072°33'4 9.5
2018-Feb-17 05:00N 41°07' W 072°38'51 8.7
2018-Feb-16 23:07N 40°53' W 073°43'1 9.5
2018-Feb-16 22:59N 40°52' W 073°44'4 9.2
2018-Feb-16 22:30N 40°48' W 073°47'5 9.0
2018-Feb-16 21:56N 40°48' W 073°54'3 7.5
2018-Feb-16 21:29N 40°46' W 073°57'4 7.6
2018-Feb-16 21:00N 40°43' W 073°59'4 7.3
2018-Feb-16 20:30N 40°40' W 074°02'3 6.9
2018-Feb-16 20:00N 40°39' W 074°07'0 0.2
2018-Feb-16 19:30N 40°39' W 074°07'0 0.0
2018-Feb-16 19:00N 40°39' W 074°07'0 0.0
2018-Feb-16 18:30N 40°39' W 074°07'1 1.0
2018-Feb-16 18:00N 40°39' W 074°07'0 0.1
2018-Feb-16 17:27N 40°39' W 074°07'0 0.0
2018-Feb-16 17:00N 40°39' W 074°07'0 0.0
2018-Feb-16 16:24N 40°39' W 074°07'0 0.0
2018-Feb-16 15:54N 40°39' W 074°07'0 0.0
2018-Feb-16 15:27N 40°39' W 074°07'0 0.0
2018-Feb-16 15:00N 40°39' W 074°07'0 0.0
2018-Feb-16 14:27N 40°39' W 074°07'0 0.0
2018-Feb-16 14:00N 40°39' W 074°07'0 0.0
2018-Feb-16 13:30N 40°39' W 074°07'0 0.0
2018-Feb-16 13:00N 40°39' W 074°07'0 0.1
2018-Feb-16 12:27N 40°39' W 074°07'0 0.0
2018-Feb-16 12:00N 40°39' W 074°07'0 0.1
2018-Feb-16 11:29N 40°39' W 074°07'0 0.0
2018-Feb-16 10:56N 40°39' W 074°07'0 0.0
2018-Feb-16 10:29N 40°39' W 074°07'0 0.0
2018-Feb-16 09:59N 40°39' W 074°07'0 0.0
2018-Feb-16 09:29N 40°39' W 074°07'0 0.0
2018-Feb-16 08:59N 40°39' W 074°07'0 0.0
2018-Feb-16 08:29N 40°39' W 074°07'0 0.0
2018-Feb-16 07:59N 40°39' W 074°07'0 0.0
2018-Feb-16 07:29N 40°39' W 074°07'0 0.0
2018-Feb-16 06:56N 40°39' W 074°07'0 0.0
2018-Feb-16 06:26N 40°39' W 074°07'0 0.0
2018-Feb-16 05:59N 40°39' W 074°07'0 0.0
2018-Feb-16 05:29N 40°39' W 074°07'0 0.0
2018-Feb-16 04:50N 40°39' W 074°07'0 0.0
2018-Feb-16 04:29N 40°39' W 074°07'0 0.0
2018-Feb-16 03:59N 40°39' W 074°07'0 0.0
2018-Feb-16 03:29N 40°39' W 074°07'1 1.3
2018-Feb-16 03:00N 40°39' W 074°07'0 0.0
2018-Feb-16 02:28N 40°39' W 074°07'0 0.0
2018-Feb-16 01:59N 40°39' W 074°07'0 0.0
2018-Feb-16 01:29N 40°39' W 074°07'0 0.0
2018-Feb-16 01:00N 40°39' W 074°07'0 0.0
2018-Feb-16 00:30N 40°39' W 074°07'0 0.0
2018-Feb-16 00:00N 40°39' W 074°07'0 0.0
2018-Feb-15 23:30N 40°39' W 074°07'0 0.0
2018-Feb-15 23:00N 40°39' W 074°07'0 0.0
2018-Feb-15 22:30N 40°39' W 074°07'1 1.3
2018-Feb-15 21:59N 40°39' W 074°06'0 0.2
2018-Feb-15 21:30N 40°39' W 074°06'0 0.0
2018-Feb-15 21:00N 40°39' W 074°06'1 1.4
2018-Feb-15 20:30N 40°39' W 074°07'0 0.0
2018-Feb-15 19:59N 40°39' W 074°07'1 3.1
2018-Feb-15 19:30N 40°39' W 074°05'1 3.0
2018-Feb-15 19:00N 40°39' W 074°03'0 0.1
2018-Feb-15 18:30N 40°39' W 074°03'0 0.1
2018-Feb-15 17:59N 40°39' W 074°03'0 0.0
2018-Feb-15 17:29N 40°39' W 074°03'0 0.0
2018-Feb-15 17:00N 40°39' W 074°03'0 0.0
2018-Feb-15 16:23N 40°39' W 074°03'0 0.4
2018-Feb-15 15:59N 40°40' W 074°03'0 0.1
2018-Feb-15 15:29N 40°40' W 074°03'0 0.0
2018-Feb-15 14:59N 40°40' W 074°03'0 0.0
2018-Feb-15 14:29N 40°40' W 074°03'0 0.0
2018-Feb-15 13:59N 40°40' W 074°03'0 0.0
2018-Feb-15 13:29N 40°40' W 074°03'0 0.0
2018-Feb-15 12:59N 40°40' W 074°03'0 0.0
2018-Feb-15 12:29N 40°40' W 074°03'0 0.1
2018-Feb-15 11:59N 40°40' W 074°03'0 0.1
2018-Feb-15 11:29N 40°40' W 074°03'0 0.2
2018-Feb-15 10:59N 40°39' W 074°03'0 0.1
2018-Feb-15 10:29N 40°39' W 074°03'0 0.0
2018-Feb-15 09:56N 40°39' W 074°03'0 0.1
2018-Feb-15 09:29N 40°39' W 074°03'0 0.1
2018-Feb-15 08:59N 40°39' W 074°03'0 0.0
2018-Feb-15 08:29N 40°39' W 074°03'0 0.0
2018-Feb-15 07:59N 40°39' W 074°03'0 0.0
2018-Feb-15 07:29N 40°39' W 074°03'0 0.0
2018-Feb-15 06:59N 40°39' W 074°03'0 0.0
2018-Feb-15 06:23N 40°39' W 074°03'0 0.0
2018-Feb-15 05:56N 40°39' W 074°03'0 0.1
2018-Feb-15 05:23N 40°39' W 074°03'0 0.0
2018-Feb-15 04:59N 40°39' W 074°03'0 0.0
2018-Feb-15 04:29N 40°39' W 074°03'0 0.1
2018-Feb-15 04:00N 40°39' W 074°03'3 6.4
2018-Feb-15 03:30N 40°39' W 074°07'0 0.4
2018-Feb-15 02:54N 40°39' W 074°07'0 0.0
2018-Feb-15 02:30N 40°39' W 074°07'0 0.0
2018-Feb-15 02:00N 40°39' W 074°07'0 0.0
2018-Feb-15 01:30N 40°39' W 074°07'0 0.0
2018-Feb-15 01:00N 40°39' W 074°07'0 0.0
2018-Feb-15 00:30N 40°39' W 074°07'0 0.0
2018-Feb-14 23:54N 40°39' W 074°07'0 0.0
2018-Feb-14 23:24N 40°39' W 074°07'0 0.0
2018-Feb-14 23:00N 40°39' W 074°07'0 0.0
2018-Feb-14 22:30N 40°39' W 074°07'0 0.0
2018-Feb-14 22:00N 40°39' W 074°07'3 6.8
2018-Feb-14 21:31N 40°39' W 074°03'0 0.1
2018-Feb-14 21:00N 40°39' W 074°03'0 0.0
2018-Feb-14 20:29N 40°39' W 074°03'0 0.0
2018-Feb-14 19:59N 40°39' W 074°03'0 0.0
2018-Feb-14 19:29N 40°39' W 074°03'0 0.0
2018-Feb-14 18:59N 40°39' W 074°03'0 0.0
2018-Feb-14 18:29N 40°39' W 074°03'0 0.0
2018-Feb-14 17:56N 40°39' W 074°03'0 0.0
2018-Feb-14 17:29N 40°39' W 074°03'0 0.1
2018-Feb-14 16:59N 40°39' W 074°03'0 0.0
2018-Feb-14 16:29N 40°39' W 074°03'0 0.0
2018-Feb-14 15:56N 40°39' W 074°03'0 0.0
2018-Feb-14 15:26N 40°39' W 074°03'0 0.2
2018-Feb-14 14:59N 40°39' W 074°03'0 0.1
2018-Feb-14 14:29N 40°39' W 074°03'0 0.2
2018-Feb-14 14:00N 40°39' W 074°03'3 6.0
2018-Feb-14 13:30N 40°36' W 074°03'5 9.5
2018-Feb-14 13:00N 40°32' W 074°02'4 6.3
2018-Feb-14 12:25N 40°29' W 074°06'1 2.8
2018-Feb-14 12:00N 40°29' W 074°08'0 0.0
2018-Feb-14 00:52N 40°29' W 074°08'  
2018-Feb-11 11:25N 40°29' W 074°08'4 0.1
2018-Feb-10 10:33N 40°29' W 074°03'0 6.5
2018-Feb-10 10:30N 40°29' W 074°03'4 8.1
2018-Feb-10 10:00N 40°33' W 074°02'4 8.3
2018-Feb-10 09:30N 40°37' W 074°03'3 5.8
2018-Feb-10 09:00N 40°40' W 074°03'0 0.0
2018-Feb-10 08:30N 40°40' W 074°03'0 0.0
2018-Feb-10 08:00N 40°40' W 074°03'0 0.1
2018-Feb-10 07:30N 40°40' W 074°02'0 0.1
2018-Feb-10 07:00N 40°40' W 074°02'0 0.1
2018-Feb-10 06:30N 40°40' W 074°02'0 0.0
2018-Feb-10 06:00N 40°40' W 074°02'0 0.1
2018-Feb-10 05:30N 40°40' W 074°02'0 0.0
2018-Feb-10 05:00N 40°40' W 074°03'0 0.0
2018-Feb-10 04:27N 40°40' W 074°03'0 0.0
2018-Feb-10 03:54N 40°40' W 074°03'0 0.0
2018-Feb-10 03:30N 40°40' W 074°03'0 0.0
2018-Feb-10 03:00N 40°40' W 074°03'0 0.1
2018-Feb-10 02:30N 40°40' W 074°02'0 0.0
2018-Feb-10 01:57N 40°40' W 074°03'0 0.0
2018-Feb-10 01:30N 40°40' W 074°03'0 0.1
2018-Feb-10 01:00N 40°40' W 074°03'0 0.1
2018-Feb-10 00:27N 40°40' W 074°03'0 0.1
2018-Feb-10 00:00N 40°40' W 074°03'0 0.1
2018-Feb-09 23:30N 40°40' W 074°03'0 0.1
2018-Feb-09 23:00N 40°40' W 074°03'0 0.0
2018-Feb-09 22:45N 40°40' W 074°03'  
Track history (hours):
 
Tides and Currents Weather Stations Pressure Air Temp Water Temp Dewpoint Dewpoint Depression Visibility Wind Speed Wind Dir Waves Ship Positions

Denise A. Bouchard

Owner: Tug Denise A, Bouchard Corp, Melville, NY. More information available from US FCC via Universal Licensing System and Coast Guard Vessel Documentation Center.

Last reported at 2018-Feb-19 13:26 UTC. Time now 2018-Feb-19 20:12 UTC.
Position N 41°37' W 071°18'.

Length 160 m; draft 5 m.

Type: Tug. MMSI: 367611060.

Date/timePositionNaut miles runAvg speedWind from/ knotsBaromVisibWave heightAir tempDewpointWater temp
2018-Feb-19 13:26N 41°37' W 071°18'4 8.8
2018-Feb-19 12:59N 41°41' W 071°19'5 8.8
2018-Feb-19 12:27N 41°45' W 071°22'2 5.0
2018-Feb-19 12:01N 41°47' W 071°22'0 0.0
2018-Feb-19 11:30N 41°47' W 071°22'0 0.0
2018-Feb-19 11:00N 41°47' W 071°22'0 0.1
2018-Feb-19 10:30N 41°47' W 071°22'0 0.0
2018-Feb-19 09:55N 41°47' W 071°22'0 0.0
2018-Feb-19 09:25N 41°47' W 071°22'0 0.0
2018-Feb-19 08:54N 41°47' W 071°22'0 0.0
2018-Feb-19 08:24N 41°47' W 071°22'0 0.0
2018-Feb-19 07:49N 41°47' W 071°22'0 0.0
2018-Feb-19 07:25N 41°47' W 071°22'0 0.0
2018-Feb-19 07:00N 41°47' W 071°22'0 0.0
2018-Feb-19 06:30N 41°47' W 071°22'0 0.0
2018-Feb-19 06:00N 41°47' W 071°22'0 0.0
2018-Feb-19 05:28N 41°47' W 071°22'0 0.0
2018-Feb-19 05:00N 41°47' W 071°22'0 0.0
2018-Feb-19 04:30N 41°47' W 071°22'0 0.0
2018-Feb-19 04:00N 41°47' W 071°22'0 0.0
2018-Feb-19 03:30N 41°47' W 071°22'0 0.0
2018-Feb-19 03:00N 41°47' W 071°22'0 0.0
2018-Feb-19 02:30N 41°47' W 071°22'0 0.0
2018-Feb-19 02:00N 41°47' W 071°22'1 2.6
2018-Feb-19 01:30N 41°46' W 071°23'3 6.3
2018-Feb-19 00:59N 41°43' W 071°20'3 7.2
2018-Feb-19 00:30N 41°40' W 071°19'43 4.5
2018-Feb-18 14:59N 42°10' W 070°38'510.0
2018-Feb-18 14:30N 42°15' W 070°40'5 9.8
2018-Feb-18 14:01N 42°18' W 070°44'5 9.6
2018-Feb-18 13:30N 42°22' W 070°49'4 8.7
2018-Feb-18 13:00N 42°22' W 070°55'4 8.2
2018-Feb-18 12:30N 42°20' W 070°60'4 8.1
2018-Feb-18 12:01N 42°23' W 071°03'0 0.3
2018-Feb-18 11:31N 42°23' W 071°03'0 0.0
2018-Feb-18 11:01N 42°23' W 071°03'0 0.0
2018-Feb-18 10:31N 42°23' W 071°03'0 0.0
2018-Feb-18 09:58N 42°23' W 071°03'0 0.0
2018-Feb-18 09:28N 42°23' W 071°03'0 0.0
2018-Feb-18 08:58N 42°23' W 071°03'0 0.0
2018-Feb-18 08:25N 42°23' W 071°03'0 0.0
2018-Feb-18 07:58N 42°23' W 071°03'0 0.0
2018-Feb-18 07:28N 42°23' W 071°03'0 0.0
2018-Feb-18 06:58N 42°23' W 071°03'0 0.0
2018-Feb-18 06:28N 42°23' W 071°03'0 0.0
2018-Feb-18 05:58N 42°23' W 071°03'0 0.0
2018-Feb-18 05:28N 42°23' W 071°03'0 0.0
2018-Feb-18 04:58N 42°23' W 071°03'0 0.0
2018-Feb-18 04:28N 42°23' W 071°03'0 0.0
2018-Feb-18 03:58N 42°23' W 071°03'0 0.0
2018-Feb-18 03:28N 42°23' W 071°03'0 0.0
2018-Feb-18 02:58N 42°23' W 071°03'0 0.0
2018-Feb-18 02:28N 42°23' W 071°03'0 0.0
2018-Feb-18 01:58N 42°23' W 071°03'0 0.0
2018-Feb-18 01:28N 42°23' W 071°03'0 0.0
2018-Feb-18 00:58N 42°23' W 071°03'0 0.0
2018-Feb-18 00:30N 42°23' W 071°03'0 0.0
2018-Feb-18 00:00N 42°23' W 071°03'0 0.3
2018-Feb-17 23:30N 42°23' W 071°03'3 5.2
2018-Feb-17 23:00N 42°21' W 071°01'1 2.5
2018-Feb-17 22:30N 42°20' W 071°00'3 6.0
2018-Feb-17 22:01N 42°21' W 070°56'3 6.1
2018-Feb-17 21:30N 42°23' W 070°53'6 6.7
2018-Feb-17 20:36N 42°20' W 070°46'2 7.8
2018-Feb-17 20:21N 42°19' W 070°43'90 6.9
2018-Feb-17 07:18N 41°14' W 072°08'311.0
2018-Feb-17 07:00N 41°14' W 072°12'611.3
2018-Feb-17 06:30N 41°12' W 072°19'510.9
2018-Feb-17 06:00N 41°10' W 072°26'5 9.6
2018-Feb-17 05:27N 41°08' W 072°33'4 9.5
2018-Feb-17 05:00N 41°07' W 072°38'51 8.7
2018-Feb-16 23:07N 40°53' W 073°43'1 9.5
2018-Feb-16 22:59N 40°52' W 073°44'4 9.2
2018-Feb-16 22:30N 40°48' W 073°47'5 9.0
2018-Feb-16 21:56N 40°48' W 073°54'3 7.5
2018-Feb-16 21:29N 40°46' W 073°57'4 7.6
2018-Feb-16 21:00N 40°43' W 073°59'4 7.3
2018-Feb-16 20:30N 40°40' W 074°02'3 6.9
2018-Feb-16 20:00N 40°39' W 074°07'0 0.2
2018-Feb-16 19:30N 40°39' W 074°07'0 0.0
2018-Feb-16 19:00N 40°39' W 074°07'0 0.0
2018-Feb-16 18:30N 40°39' W 074°07'1 1.0
2018-Feb-16 18:00N 40°39' W 074°07'0 0.1
2018-Feb-16 17:27N 40°39' W 074°07'0 0.0
2018-Feb-16 17:00N 40°39' W 074°07'0 0.0
2018-Feb-16 16:24N 40°39' W 074°07'0 0.0
2018-Feb-16 15:54N 40°39' W 074°07'0 0.0
2018-Feb-16 15:27N 40°39' W 074°07'0 0.0
2018-Feb-16 15:00N 40°39' W 074°07'0 0.0
2018-Feb-16 14:27N 40°39' W 074°07'0 0.0
2018-Feb-16 14:00N 40°39' W 074°07'0 0.0
2018-Feb-16 13:30N 40°39' W 074°07'0 0.0
2018-Feb-16 13:00N 40°39' W 074°07'0 0.1
2018-Feb-16 12:27N 40°39' W 074°07'0 0.0
2018-Feb-16 12:00N 40°39' W 074°07'0 0.1
2018-Feb-16 11:29N 40°39' W 074°07'0 0.0
2018-Feb-16 10:56N 40°39' W 074°07'0 0.0
2018-Feb-16 10:29N 40°39' W 074°07'0 0.0
2018-Feb-16 09:59N 40°39' W 074°07'0 0.0
2018-Feb-16 09:29N 40°39' W 074°07'0 0.0
2018-Feb-16 08:59N 40°39' W 074°07'0 0.0
2018-Feb-16 08:29N 40°39' W 074°07'0 0.0
2018-Feb-16 07:59N 40°39' W 074°07'0 0.0
2018-Feb-16 07:29N 40°39' W 074°07'0 0.0
2018-Feb-16 06:56N 40°39' W 074°07'0 0.0
2018-Feb-16 06:26N 40°39' W 074°07'0 0.0
2018-Feb-16 05:59N 40°39' W 074°07'0 0.0
2018-Feb-16 05:29N 40°39' W 074°07'0 0.0
2018-Feb-16 04:50N 40°39' W 074°07'0 0.0
2018-Feb-16 04:29N 40°39' W 074°07'0 0.0
2018-Feb-16 03:59N 40°39' W 074°07'0 0.0
2018-Feb-16 03:29N 40°39' W 074°07'1 1.3
2018-Feb-16 03:00N 40°39' W 074°07'0 0.0
2018-Feb-16 02:28N 40°39' W 074°07'0 0.0
2018-Feb-16 01:59N 40°39' W 074°07'0 0.0
2018-Feb-16 01:29N 40°39' W 074°07'0 0.0
2018-Feb-16 01:00N 40°39' W 074°07'0 0.0
2018-Feb-16 00:30N 40°39' W 074°07'0 0.0
2018-Feb-16 00:00N 40°39' W 074°07'0 0.0
2018-Feb-15 23:30N 40°39' W 074°07'0 0.0
2018-Feb-15 23:00N 40°39' W 074°07'0 0.0
2018-Feb-15 22:30N 40°39' W 074°07'1 1.3
2018-Feb-15 21:59N 40°39' W 074°06'0 0.2
2018-Feb-15 21:30N 40°39' W 074°06'0 0.0
2018-Feb-15 21:00N 40°39' W 074°06'1 1.4
2018-Feb-15 20:30N 40°39' W 074°07'0 0.0
2018-Feb-15 19:59N 40°39' W 074°07'1 3.1
2018-Feb-15 19:30N 40°39' W 074°05'1 3.0
2018-Feb-15 19:00N 40°39' W 074°03'0 0.1
2018-Feb-15 18:30N 40°39' W 074°03'0 0.1
2018-Feb-15 17:59N 40°39' W 074°03'0 0.0
2018-Feb-15 17:29N 40°39' W 074°03'0 0.0
2018-Feb-15 17:00N 40°39' W 074°03'0 0.0
2018-Feb-15 16:23N 40°39' W 074°03'0 0.4
2018-Feb-15 15:59N 40°40' W 074°03'0 0.1
2018-Feb-15 15:29N 40°40' W 074°03'0 0.0
2018-Feb-15 14:59N 40°40' W 074°03'0 0.0
2018-Feb-15 14:29N 40°40' W 074°03'0 0.0
2018-Feb-15 13:59N 40°40' W 074°03'0 0.0
2018-Feb-15 13:29N 40°40' W 074°03'0 0.0
2018-Feb-15 12:59N 40°40' W 074°03'0 0.0
2018-Feb-15 12:29N 40°40' W 074°03'0 0.1
2018-Feb-15 11:59N 40°40' W 074°03'0 0.1
2018-Feb-15 11:29N 40°40' W 074°03'0 0.2
2018-Feb-15 10:59N 40°39' W 074°03'0 0.1
2018-Feb-15 10:29N 40°39' W 074°03'0 0.0
2018-Feb-15 09:56N 40°39' W 074°03'0 0.1
2018-Feb-15 09:29N 40°39' W 074°03'0 0.1
2018-Feb-15 08:59N 40°39' W 074°03'0 0.0
2018-Feb-15 08:29N 40°39' W 074°03'0 0.0
2018-Feb-15 07:59N 40°39' W 074°03'0 0.0
2018-Feb-15 07:29N 40°39' W 074°03'0 0.0
2018-Feb-15 06:59N 40°39' W 074°03'0 0.0
2018-Feb-15 06:23N 40°39' W 074°03'0 0.0
2018-Feb-15 05:56N 40°39' W 074°03'0 0.1
2018-Feb-15 05:23N 40°39' W 074°03'0 0.0
2018-Feb-15 04:59N 40°39' W 074°03'0 0.0
2018-Feb-15 04:29N 40°39' W 074°03'0 0.1
2018-Feb-15 04:00N 40°39' W 074°03'3 6.4
2018-Feb-15 03:30N 40°39' W 074°07'0 0.4
2018-Feb-15 02:54N 40°39' W 074°07'0 0.0
2018-Feb-15 02:30N 40°39' W 074°07'0 0.0
2018-Feb-15 02:00N 40°39' W 074°07'0 0.0
2018-Feb-15 01:30N 40°39' W 074°07'0 0.0
2018-Feb-15 01:00N 40°39' W 074°07'0 0.0
2018-Feb-15 00:30N 40°39' W 074°07'0 0.0
2018-Feb-14 23:54N 40°39' W 074°07'0 0.0
2018-Feb-14 23:24N 40°39' W 074°07'0 0.0
2018-Feb-14 23:00N 40°39' W 074°07'0 0.0
2018-Feb-14 22:30N 40°39' W 074°07'0 0.0
2018-Feb-14 22:00N 40°39' W 074°07'3 6.8
2018-Feb-14 21:31N 40°39' W 074°03'0 0.1
2018-Feb-14 21:00N 40°39' W 074°03'0 0.0
2018-Feb-14 20:29N 40°39' W 074°03'0 0.0
2018-Feb-14 19:59N 40°39' W 074°03'0 0.0
2018-Feb-14 19:29N 40°39' W 074°03'0 0.0
2018-Feb-14 18:59N 40°39' W 074°03'0 0.0
2018-Feb-14 18:29N 40°39' W 074°03'0 0.0
2018-Feb-14 17:56N 40°39' W 074°03'0 0.0
2018-Feb-14 17:29N 40°39' W 074°03'0 0.1
2018-Feb-14 16:59N 40°39' W 074°03'0 0.0
2018-Feb-14 16:29N 40°39' W 074°03'0 0.0
2018-Feb-14 15:56N 40°39' W 074°03'0 0.0
2018-Feb-14 15:26N 40°39' W 074°03'0 0.2
2018-Feb-14 14:59N 40°39' W 074°03'0 0.1
2018-Feb-14 14:29N 40°39' W 074°03'0 0.2
2018-Feb-14 14:00N 40°39' W 074°03'3 6.0
2018-Feb-14 13:30N 40°36' W 074°03'5 9.5
2018-Feb-14 13:00N 40°32' W 074°02'4 6.3
2018-Feb-14 12:25N 40°29' W 074°06'1 2.8
2018-Feb-14 12:00N 40°29' W 074°08'0 0.0
2018-Feb-14 00:52N 40°29' W 074°08'  
2018-Feb-11 11:25N 40°29' W 074°08'4 0.1
2018-Feb-10 10:33N 40°29' W 074°03'0 6.5
2018-Feb-10 10:30N 40°29' W 074°03'4 8.1
2018-Feb-10 10:00N 40°33' W 074°02'4 8.3
2018-Feb-10 09:30N 40°37' W 074°03'3 5.8
2018-Feb-10 09:00N 40°40' W 074°03'0 0.0
2018-Feb-10 08:30N 40°40' W 074°03'0 0.0
2018-Feb-10 08:00N 40°40' W 074°03'0 0.1
2018-Feb-10 07:30N 40°40' W 074°02'0 0.1
2018-Feb-10 07:00N 40°40' W 074°02'0 0.1
2018-Feb-10 06:30N 40°40' W 074°02'0 0.0
2018-Feb-10 06:00N 40°40' W 074°02'0 0.1
2018-Feb-10 05:30N 40°40' W 074°02'0 0.0
2018-Feb-10 05:00N 40°40' W 074°03'0 0.0
2018-Feb-10 04:27N 40°40' W 074°03'0 0.0
2018-Feb-10 03:54N 40°40' W 074°03'0 0.0
2018-Feb-10 03:30N 40°40' W 074°03'0 0.0
2018-Feb-10 03:00N 40°40' W 074°03'0 0.1
2018-Feb-10 02:30N 40°40' W 074°02'0 0.0
2018-Feb-10 01:57N 40°40' W 074°03'0 0.0
2018-Feb-10 01:30N 40°40' W 074°03'0 0.1
2018-Feb-10 01:00N 40°40' W 074°03'0 0.1
2018-Feb-10 00:27N 40°40' W 074°03'0 0.1
2018-Feb-10 00:00N 40°40' W 074°03'0 0.1
2018-Feb-09 23:30N 40°40' W 074°03'0 0.1
2018-Feb-09 23:00N 40°40' W 074°03'0 0.0
2018-Feb-09 22:45N 40°40' W 074°03'  

Dump ship's entire track history